ADDS METAR Data INFO
IDs: Format: Raw Decoded Include TAF

Data at: 1630 UTC 22 Jul 2017

KCOT 221553Z AUTO VRB06KT 10SM CLR 31/22 A2996 RMK AO2 SLP137 T03110222
KCOT 221453Z AUTO 15010KT 10SM CLR 29/22 A2998 RMK AO2 SLP141 T02890222 51012
KCOT 221353Z AUTO 15008KT 10SM CLR 27/23 A2997 RMK AO2 SLP140 T02720228
KCOT 221253Z AUTO 12008KT 10SM CLR 26/22 A2996 RMK AO2 SLP136 T02560222
KCOT 221153Z AUTO 13007KT 10SM CLR 24/22 A2994 RMK AO2 SLP129 T02440222 10289 20244 53006
KCOT 221053Z AUTO 15006KT 10SM CLR 25/22 A2993 RMK AO2 SLP126 T02500217
KCOT 220953Z AUTO 15006KT 10SM CLR 26/22 A2993 RMK AO2 SLP125 T02560217
KCOT 220853Z AUTO 14009KT 10SM CLR 27/22 A2992 RMK AO2 SLP123 T02670217 56008
KCOT 220753Z AUTO 15009KT 10SM CLR 27/22 A2993 RMK AO2 SLP124 T02720217
KCOT 220653Z AUTO 15010KT 10SM CLR 28/22 A2993 RMK AO2 SLP127 T02830217
KCOT 220553Z AUTO 15011KT 10SM CLR 29/22 A2994 RMK AO2 SLP131 T02890217 10378 20289 404000244 51013
KCOT 220453Z AUTO 14013KT 10SM CLR 30/21 A2994 RMK AO2 SLP129 T03000211
KCOT 220353Z AUTO 14014G21KT 10SM CLR 31/21 A2993 RMK AO2 SLP124 T03110211
KCOT 220253Z AUTO 14017G23KT 10SM CLR 33/21 A2991 RMK AO2 SLP118 T03280211 53016
KCOT 220153Z AUTO 14014G21KT 10SM CLR 34/20 A2988 RMK AO2 SLP109 T03440200
KCOT 220053Z AUTO 15011KT 10SM FEW110 37/14 A2986 RMK AO2 SLP104 T03670144
KCOT 212353Z AUTO 14015KT 10SM SCT090 38/14 A2986 RMK AO2 SLP102 T03830144 10400 20361 56015
KCOT 212253Z AUTO 16009G22KT 10SM FEW100 39/13 A2986 RMK AO2 SLP103 T03940133
KCOT 212153Z AUTO 14011G22KT 10SM SCT090 39/13 A2988 RMK AO2 SLP108 T03940133
KCOT 212053Z AUTO 11010G17KT 10SM CLR 40/13 A2990 RMK AO2 SLP117 T04000133 58027
KCOT 211953Z AUTO 16009G16KT 10SM CLR 38/13 A2993 RMK AO2 SLP127 T03830133
KCOT 211853Z AUTO 12012G20KT 10SM CLR 38/13 A2997 RMK AO2 SLP138 T03830133
KCOT 211753Z AUTO 14015G18KT 10SM CLR 37/16 A2999 RMK AO2 SLP145 T03670156 10367 20244 58011
KCOT 211653Z AUTO 16007KT 120V200 10SM CLR 34/18 A3001 RMK AO2 SLP152 T03440178
KCOT 211553Z AUTO 17008G15KT 10SM CLR 32/19 A3001 RMK AO2 SLP154 T03220189
KCOT 211453Z AUTO 15008KT 10SM CLR 30/21 A3002 RMK AO2 SLP156 T03000211 51009
KCOT 211353Z AUTO 15008KT 10SM CLR 28/22 A3002 RMK AO2 SLP156 T02780222
KCOT 211253Z AUTO 12006KT 10SM CLR 25/22 A3001 RMK AO2 SLP152 T02500222
KCOT 211153Z AUTO 12007KT 10SM CLR 24/21 A2999 RMK AO2 SLP147 T02440211 10289 20244 53002
KCOT 211053Z AUTO 13006KT 10SM CLR 25/21 A2997 RMK AO2 SLP141 T02500211
KCOT 210953Z AUTO 14005KT 10SM CLR 25/21 A2997 RMK AO2 SLP139 T02500211
KCOT 210853Z AUTO 15006KT 10SM CLR 27/21 A2998 RMK AO2 SLP144 T02670211 58010
KCOT 210753Z AUTO 16007KT 10SM CLR 28/22 A3000 RMK AO2 SLP149 T02780217
KCOT 210653Z AUTO 15009KT 10SM CLR 28/22 A3001 RMK AO2 SLP152 T02830217
KCOT 210553Z AUTO 15011KT 10SM CLR 29/22 A3001 RMK AO2 SLP154 T02890217 10383 20289 404000244 51018
KCOT 210453Z AUTO 14013KT 10SM CLR 29/22 A3001 RMK AO2 SLP154 T02940217